Portada
METAR-TAF:

METAR-TAF

Aeroports :

Iqaluit, Nunavut, Canadà

latitud: 63-45N, longitud: 068-33W, altitud: 34 m

Observació

L'informe es va fer fa 19 minuts, a les 20:00 UTC
Vent 20 kt del Nord-Oest amb ràfegues de 26 kt
Temperatura 20°C
Humitat 43%
Pressió 1009 hPa
Visibilitat: 48.3 km
Escasses núvols a una alçada de 1000 ft
Escasses núvols a una alçada de 25000 ft

METAR: CYFB 202000Z 32020G26KT 30SM FEW010 FEW250 20/07 A2981 RMK CU1CI1 CI TR SLP099 DENSITY ALT 900FT

Hora: 16:19 (20:19 UTC)

Pronòstic

L'informe es va fer fa 2 hores i 41 minuts, a les 17:38 UTC
Pronòstic vàlid del 20 a les 18 UTC al 21 a les 18 UTC
Vent 20 kt del Nord/Nord-Oest amb ràfegues de 30 kt
Visibilitat: 10 km
Cel clar
Evolucionant progressivament
l' 21 a les 01 UTC al 21 a les 03 UTC
Vent 15 kt del Nord/Nord-Oest amb ràfegues de 25 kt

TAF: CYFB 201738Z 2018/2118 33020G30KT P6SM SKC BECMG 2101/2103 33015G25KT RMK NXT FCST BY 210000Z

Observacions i pronòstics meteorològics de més de 4000 aeroports (METAR i TAF).

Les estacions disponibles són els punts grocs i vermells al mapa.

Posi el ratolí al punt desitjat per veure el nom de l'estació.

Feu clic per veure les observacions i els pronòstics meteorològics.

Per canviar el mapa: feu clic els botons verds amb una creu de color negre per apropar; al botó verd amb un guió per allunyar la imatge; o en les fletxes verdes per a mapes adjacents.


METAR-TAF: